Terminal Aerodrome Forecast
Issued by NWS

Home | Current Version | Previous Version | Text Only | Print | Product List | Glossary On
Versions: 1 2 3 4 5 6 7 8 9 10 11 12 13 14 15 16 17 18 19 20 21 22 23
223
FTUS43 KAPX 272340
TAFTVC
TAF
KTVC 272340Z 2800/2824 VRB03KT P6SM SCT040 BKN070 OVC090
     FM280100 13004KT 5SM -SHRA OVC050 WS020/18025KT
     FM280600 16007KT 6SM BR OVC050 WS020/18025KT
     FM281200 19009KT 6SM BR OVC020 WS020/18025KT
     FM281400 20009KT P6SM BKN025
     FM281700 21010KT P6SM BKN045=

USA.gov is the U.S. government's official web portal to all federal, state and local government web resources and services.